Weather at Withrotor Airport

Public forecast

Using degrees Fahrenheit for public forecast. Weather courtesy of forecast.io.

Closest aviation weather report (METAR) to Withrotor Airport

Closest report is Lake County Airport, 6.9 nm (12.7 km) S. Retrieved 2021/06/20 08:53 UTC (51 minutes ago):

KLKV 200853Z AUTO 34011KT 10SM CLR 15/04 A3004 RMK AO2 SLP123 T01500044 50001

Closest aviation forecast (TAF) to Withrotor Airport

Closest forecast is Crater Lake-Klamath Regional Airport, 60.0 nm (111.1 km) W. Retrieved 2021/06/20 06:22 UTC (3 hours ago):

TAF KLMT 200520Z 2006/2106 33006KT P6SM SKC FM202300 31009G15KT P6SM FEW120 FM210400 31007KT P6SM SKC